sensor_id;sensor_type;location;lat;lon;timestamp;temperature;humidity
65582;DHT22;52231;40.090;18.348;2023-12-20T00:01:57;4.70;92.40
65582;DHT22;52231;40.090;18.348;2023-12-20T00:04:27;4.80;92.40
65582;DHT22;52231;40.090;18.348;2023-12-20T00:06:56;4.70;92.30
65582;DHT22;52231;40.090;18.348;2023-12-20T00:09:24;4.80;92.40
65582;DHT22;52231;40.090;18.348;2023-12-20T00:11:52;4.70;92.30
65582;DHT22;52231;40.090;18.348;2023-12-20T00:14:20;4.70;92.40
65582;DHT22;52231;40.090;18.348;2023-12-20T00:16:49;4.60;92.30
65582;DHT22;52231;40.090;18.348;2023-12-20T00:19:18;4.70;92.40
65582;DHT22;52231;40.090;18.348;2023-12-20T00:21:48;4.60;92.40
65582;DHT22;52231;40.090;18.348;2023-12-20T00:24:16;4.60;92.30
65582;DHT22;52231;40.090;18.348;2023-12-20T00:26:45;4.50;92.30
65582;DHT22;52231;40.090;18.348;2023-12-20T00:29:13;4.60;92.40
65582;DHT22;52231;40.090;18.348;2023-12-20T00:31:41;4.50;92.40
65582;DHT22;52231;40.090;18.348;2023-12-20T00:34:10;4.50;92.40
65582;DHT22;52231;40.090;18.348;2023-12-20T00:36:38;4.50;92.40
65582;DHT22;52231;40.090;18.348;2023-12-20T00:39:06;4.50;92.40
65582;DHT22;52231;40.090;18.348;2023-12-20T00:41:35;4.50;92.40
65582;DHT22;52231;40.090;18.348;2023-12-20T00:44:03;4.50;92.40
65582;DHT22;52231;40.090;18.348;2023-12-20T00:46:31;4.60;92.50
65582;DHT22;52231;40.090;18.348;2023-12-20T00:49:00;4.70;92.50
65582;DHT22;52231;40.090;18.348;2023-12-20T00:51:28;4.70;92.50
65582;DHT22;52231;40.090;18.348;2023-12-20T00:53:57;4.70;92.50
65582;DHT22;52231;40.090;18.348;2023-12-20T00:56:25;4.80;92.60
65582;DHT22;52231;40.090;18.348;2023-12-20T00:58:53;4.80;92.60
65582;DHT22;52231;40.090;18.348;2023-12-20T01:01:21;4.80;92.60
65582;DHT22;52231;40.090;18.348;2023-12-20T01:03:50;4.90;92.60
65582;DHT22;52231;40.090;18.348;2023-12-20T01:06:19;4.80;92.60
65582;DHT22;52231;40.090;18.348;2023-12-20T01:08:47;4.80;92.70
65582;DHT22;52231;40.090;18.348;2023-12-20T01:11:15;4.80;92.70
65582;DHT22;52231;40.090;18.348;2023-12-20T01:13:44;4.80;92.70
65582;DHT22;52231;40.090;18.348;2023-12-20T01:16:12;4.80;92.70
65582;DHT22;52231;40.090;18.348;2023-12-20T01:18:41;4.80;92.70
65582;DHT22;52231;40.090;18.348;2023-12-20T01:21:12;4.80;92.70
65582;DHT22;52231;40.090;18.348;2023-12-20T01:23:41;4.80;92.80
65582;DHT22;52231;40.090;18.348;2023-12-20T01:26:09;4.80;92.80
65582;DHT22;52231;40.090;18.348;2023-12-20T01:28:38;4.70;92.80
65582;DHT22;52231;40.090;18.348;2023-12-20T01:31:06;4.70;92.80
65582;DHT22;52231;40.090;18.348;2023-12-20T01:33:36;4.70;92.80
65582;DHT22;52231;40.090;18.348;2023-12-20T01:36:05;4.60;92.80
65582;DHT22;52231;40.090;18.348;2023-12-20T01:38:33;4.70;92.80
65582;DHT22;52231;40.090;18.348;2023-12-20T01:41:01;4.70;92.80
65582;DHT22;52231;40.090;18.348;2023-12-20T01:43:30;4.70;92.80
65582;DHT22;52231;40.090;18.348;2023-12-20T01:46:00;4.70;92.80
65582;DHT22;52231;40.090;18.348;2023-12-20T01:48:28;4.60;92.80
65582;DHT22;52231;40.090;18.348;2023-12-20T01:50:57;4.70;92.80
65582;DHT22;52231;40.090;18.348;2023-12-20T01:53:27;4.70;92.90
65582;DHT22;52231;40.090;18.348;2023-12-20T01:55:58;4.50;92.80
65582;DHT22;52231;40.090;18.348;2023-12-20T01:58:27;4.60;92.90
65582;DHT22;52231;40.090;18.348;2023-12-20T02:00:57;4.50;92.80
65582;DHT22;52231;40.090;18.348;2023-12-20T02:03:32;4.50;92.80
65582;DHT22;52231;40.090;18.348;2023-12-20T02:06:16;4.50;92.80
65582;DHT22;52231;40.090;18.348;2023-12-20T02:08:50;4.30;92.80
65582;DHT22;52231;40.090;18.348;2023-12-20T02:11:18;4.30;92.80
65582;DHT22;52231;40.090;18.348;2023-12-20T02:13:46;4.30;92.70
65582;DHT22;52231;40.090;18.348;2023-12-20T02:16:18;4.20;92.70
65582;DHT22;52231;40.090;18.348;2023-12-20T02:18:48;4.30;92.70
65582;DHT22;52231;40.090;18.348;2023-12-20T02:21:16;4.30;92.80
65582;DHT22;52231;40.090;18.348;2023-12-20T02:23:45;4.30;92.70
65582;DHT22;52231;40.090;18.348;2023-12-20T02:26:13;4.40;92.70
65582;DHT22;52231;40.090;18.348;2023-12-20T02:28:41;4.40;92.80
65582;DHT22;52231;40.090;18.348;2023-12-20T02:31:10;4.30;92.80
65582;DHT22;52231;40.090;18.348;2023-12-20T02:33:38;4.30;92.80
65582;DHT22;52231;40.090;18.348;2023-12-20T02:36:07;4.30;92.80
65582;DHT22;52231;40.090;18.348;2023-12-20T02:38:35;4.20;92.80
65582;DHT22;52231;40.090;18.348;2023-12-20T02:41:04;4.20;92.80
65582;DHT22;52231;40.090;18.348;2023-12-20T02:43:32;4.20;92.80
65582;DHT22;52231;40.090;18.348;2023-12-20T02:46:00;4.20;92.80
65582;DHT22;52231;40.090;18.348;2023-12-20T02:48:33;4.20;92.80
65582;DHT22;52231;40.090;18.348;2023-12-20T02:51:06;4.20;92.80
65582;DHT22;52231;40.090;18.348;2023-12-20T02:53:35;4.20;92.80
65582;DHT22;52231;40.090;18.348;2023-12-20T02:56:04;4.20;92.80
65582;DHT22;52231;40.090;18.348;2023-12-20T02:58:32;4.20;92.80
65582;DHT22;52231;40.090;18.348;2023-12-20T03:01:00;4.20;92.80
65582;DHT22;52231;40.090;18.348;2023-12-20T03:03:29;4.20;92.80
65582;DHT22;52231;40.090;18.348;2023-12-20T03:05:57;4.30;92.80
65582;DHT22;52231;40.090;18.348;2023-12-20T03:08:26;4.30;92.80
65582;DHT22;52231;40.090;18.348;2023-12-20T03:10:56;4.30;92.80
65582;DHT22;52231;40.090;18.348;2023-12-20T03:13:45;4.20;92.80
65582;DHT22;52231;40.090;18.348;2023-12-20T03:16:13;4.30;92.70
65582;DHT22;52231;40.090;18.348;2023-12-20T03:18:44;4.30;92.80
65582;DHT22;52231;40.090;18.348;2023-12-20T03:21:12;4.20;92.80
65582;DHT22;52231;40.090;18.348;2023-12-20T03:23:41;4.20;92.80
65582;DHT22;52231;40.090;18.348;2023-12-20T03:26:09;4.30;92.80
65582;DHT22;52231;40.090;18.348;2023-12-20T03:28:38;4.30;92.80
65582;DHT22;52231;40.090;18.348;2023-12-20T03:31:06;4.30;92.70
65582;DHT22;52231;40.090;18.348;2023-12-20T03:33:34;4.30;92.80
65582;DHT22;52231;40.090;18.348;2023-12-20T03:36:03;4.40;92.80
65582;DHT22;52231;40.090;18.348;2023-12-20T03:38:31;4.30;92.70
65582;DHT22;52231;40.090;18.348;2023-12-20T03:40:59;4.30;92.80
65582;DHT22;52231;40.090;18.348;2023-12-20T03:43:28;4.30;92.80
65582;DHT22;52231;40.090;18.348;2023-12-20T03:46:01;4.40;92.90
65582;DHT22;52231;40.090;18.348;2023-12-20T03:49:40;4.30;92.90
65582;DHT22;52231;40.090;18.348;2023-12-20T03:52:08;4.40;92.90
65582;DHT22;52231;40.090;18.348;2023-12-20T03:54:36;4.40;92.90
65582;DHT22;52231;40.090;18.348;2023-12-20T03:57:04;4.40;92.90
65582;DHT22;52231;40.090;18.348;2023-12-20T03:59:36;4.50;92.90
65582;DHT22;52231;40.090;18.348;2023-12-20T04:02:04;4.50;92.90
65582;DHT22;52231;40.090;18.348;2023-12-20T04:04:33;4.40;92.90
65582;DHT22;52231;40.090;18.348;2023-12-20T04:07:01;4.50;92.90
65582;DHT22;52231;40.090;18.348;2023-12-20T04:09:29;4.50;92.90
65582;DHT22;52231;40.090;18.348;2023-12-20T04:11:57;4.60;93.00
65582;DHT22;52231;40.090;18.348;2023-12-20T04:14:26;4.60;93.00
65582;DHT22;52231;40.090;18.348;2023-12-20T04:16:55;4.70;92.90
65582;DHT22;52231;40.090;18.348;2023-12-20T04:19:23;4.80;92.90
65582;DHT22;52231;40.090;18.348;2023-12-20T04:21:52;4.90;93.00
65582;DHT22;52231;40.090;18.348;2023-12-20T04:24:20;4.80;92.90
65582;DHT22;52231;40.090;18.348;2023-12-20T04:26:48;4.90;93.00
65582;DHT22;52231;40.090;18.348;2023-12-20T04:29:16;5.00;93.00
65582;DHT22;52231;40.090;18.348;2023-12-20T04:31:44;5.00;93.00
65582;DHT22;52231;40.090;18.348;2023-12-20T04:34:13;5.00;93.00
65582;DHT22;52231;40.090;18.348;2023-12-20T04:36:41;5.00;93.00
65582;DHT22;52231;40.090;18.348;2023-12-20T04:39:11;5.10;93.00
65582;DHT22;52231;40.090;18.348;2023-12-20T04:41:40;5.20;93.00
65582;DHT22;52231;40.090;18.348;2023-12-20T04:44:08;5.10;93.00
65582;DHT22;52231;40.090;18.348;2023-12-20T04:46:36;5.20;93.10
65582;DHT22;52231;40.090;18.348;2023-12-20T04:49:04;5.10;93.10
65582;DHT22;52231;40.090;18.348;2023-12-20T04:51:35;4.90;93.00
65582;DHT22;52231;40.090;18.348;2023-12-20T04:54:04;4.90;93.10
65582;DHT22;52231;40.090;18.348;2023-12-20T04:56:32;4.80;93.10
65582;DHT22;52231;40.090;18.348;2023-12-20T04:59:00;4.80;93.10
65582;DHT22;52231;40.090;18.348;2023-12-20T05:01:28;4.70;93.10
65582;DHT22;52231;40.090;18.348;2023-12-20T05:03:56;4.70;93.10
65582;DHT22;52231;40.090;18.348;2023-12-20T05:06:24;4.70;93.20
65582;DHT22;52231;40.090;18.348;2023-12-20T05:08:52;4.60;93.10
65582;DHT22;52231;40.090;18.348;2023-12-20T05:11:20;4.70;93.10
65582;DHT22;52231;40.090;18.348;2023-12-20T05:13:48;4.60;93.10
65582;DHT22;52231;40.090;18.348;2023-12-20T05:16:16;4.60;93.10
65582;DHT22;52231;40.090;18.348;2023-12-20T05:18:47;4.60;93.10
65582;DHT22;52231;40.090;18.348;2023-12-20T05:21:16;4.60;93.10
65582;DHT22;52231;40.090;18.348;2023-12-20T05:23:45;4.60;93.10
65582;DHT22;52231;40.090;18.348;2023-12-20T05:26:14;4.70;93.10
65582;DHT22;52231;40.090;18.348;2023-12-20T05:28:42;4.60;93.10
65582;DHT22;52231;40.090;18.348;2023-12-20T05:31:10;4.60;93.10
65582;DHT22;52231;40.090;18.348;2023-12-20T05:33:39;4.70;93.20
65582;DHT22;52231;40.090;18.348;2023-12-20T05:36:07;4.60;93.10
65582;DHT22;52231;40.090;18.348;2023-12-20T05:38:39;4.60;93.10
65582;DHT22;52231;40.090;18.348;2023-12-20T05:41:07;4.60;93.20
65582;DHT22;52231;40.090;18.348;2023-12-20T05:43:35;4.60;93.20
65582;DHT22;52231;40.090;18.348;2023-12-20T05:46:03;4.50;93.10
65582;DHT22;52231;40.090;18.348;2023-12-20T05:48:31;4.50;93.10
65582;DHT22;52231;40.090;18.348;2023-12-20T05:50:59;4.50;93.10
65582;DHT22;52231;40.090;18.348;2023-12-20T05:53:28;4.50;93.10
65582;DHT22;52231;40.090;18.348;2023-12-20T05:55:56;4.60;93.10
65582;DHT22;52231;40.090;18.348;2023-12-20T05:58:24;4.70;93.20
65582;DHT22;52231;40.090;18.348;2023-12-20T06:00:52;4.60;93.10
65582;DHT22;52231;40.090;18.348;2023-12-20T06:03:20;4.70;93.20
65582;DHT22;52231;40.090;18.348;2023-12-20T06:05:49;4.70;93.20
65582;DHT22;52231;40.090;18.348;2023-12-20T06:08:17;4.70;93.20
65582;DHT22;52231;40.090;18.348;2023-12-20T06:10:45;4.70;93.20
65582;DHT22;52231;40.090;18.348;2023-12-20T06:13:14;4.70;93.20
65582;DHT22;52231;40.090;18.348;2023-12-20T06:15:42;4.70;93.20
65582;DHT22;52231;40.090;18.348;2023-12-20T06:18:11;4.70;93.20
65582;DHT22;52231;40.090;18.348;2023-12-20T06:20:39;4.70;93.20
65582;DHT22;52231;40.090;18.348;2023-12-20T06:23:07;4.80;93.30
65582;DHT22;52231;40.090;18.348;2023-12-20T06:25:36;4.70;93.20
65582;DHT22;52231;40.090;18.348;2023-12-20T06:28:04;4.70;93.20
65582;DHT22;52231;40.090;18.348;2023-12-20T06:30:32;4.80;93.30
65582;DHT22;52231;40.090;18.348;2023-12-20T06:33:01;4.80;93.20
65582;DHT22;52231;40.090;18.348;2023-12-20T06:35:29;4.90;93.20
65582;DHT22;52231;40.090;18.348;2023-12-20T06:37:57;5.00;93.30
65582;DHT22;52231;40.090;18.348;2023-12-20T06:40:26;4.90;93.20
65582;DHT22;52231;40.090;18.348;2023-12-20T06:42:54;5.00;93.30
65582;DHT22;52231;40.090;18.348;2023-12-20T06:45:25;5.10;93.30
65582;DHT22;52231;40.090;18.348;2023-12-20T06:47:53;5.20;93.30
65582;DHT22;52231;40.090;18.348;2023-12-20T06:50:22;5.30;93.30
65582;DHT22;52231;40.090;18.348;2023-12-20T06:52:52;5.50;93.30
65582;DHT22;52231;40.090;18.348;2023-12-20T06:55:20;5.60;93.30
65582;DHT22;52231;40.090;18.348;2023-12-20T06:57:49;5.60;93.30
65582;DHT22;52231;40.090;18.348;2023-12-20T07:00:17;5.60;93.40
65582;DHT22;52231;40.090;18.348;2023-12-20T07:02:47;5.70;93.40
65582;DHT22;52231;40.090;18.348;2023-12-20T07:05:17;5.80;93.40
65582;DHT22;52231;40.090;18.348;2023-12-20T07:07:47;5.90;93.40
65582;DHT22;52231;40.090;18.348;2023-12-20T07:10:16;6.00;93.40
65582;DHT22;52231;40.090;18.348;2023-12-20T07:12:44;6.20;93.40
65582;DHT22;52231;40.090;18.348;2023-12-20T07:15:12;6.30;93.40
65582;DHT22;52231;40.090;18.348;2023-12-20T07:17:40;6.30;93.40
65582;DHT22;52231;40.090;18.348;2023-12-20T07:20:09;6.50;93.50
65582;DHT22;52231;40.090;18.348;2023-12-20T07:22:38;6.50;93.40
65582;DHT22;52231;40.090;18.348;2023-12-20T07:25:07;6.60;93.40
65582;DHT22;52231;40.090;18.348;2023-12-20T07:27:35;6.70;93.40
65582;DHT22;52231;40.090;18.348;2023-12-20T07:30:04;6.90;93.40
65582;DHT22;52231;40.090;18.348;2023-12-20T07:32:32;7.00;93.40
65582;DHT22;52231;40.090;18.348;2023-12-20T07:35:00;7.20;93.40
65582;DHT22;52231;40.090;18.348;2023-12-20T07:37:29;7.30;93.40
65582;DHT22;52231;40.090;18.348;2023-12-20T07:39:57;7.40;93.40
65582;DHT22;52231;40.090;18.348;2023-12-20T07:42:25;7.50;93.40
65582;DHT22;52231;40.090;18.348;2023-12-20T07:44:53;7.50;93.40
65582;DHT22;52231;40.090;18.348;2023-12-20T07:47:21;7.70;93.40
65582;DHT22;52231;40.090;18.348;2023-12-20T07:49:49;7.80;93.40
65582;DHT22;52231;40.090;18.348;2023-12-20T07:52:19;7.80;93.30
65582;DHT22;52231;40.090;18.348;2023-12-20T07:54:49;8.00;93.40
65582;DHT22;52231;40.090;18.348;2023-12-20T07:57:18;8.10;93.30
65582;DHT22;52231;40.090;18.348;2023-12-20T07:59:46;8.20;93.20
65582;DHT22;52231;40.090;18.348;2023-12-20T08:02:14;8.30;93.30
65582;DHT22;52231;40.090;18.348;2023-12-20T08:04:42;8.40;93.20
65582;DHT22;52231;40.090;18.348;2023-12-20T08:07:11;8.50;93.20
65582;DHT22;52231;40.090;18.348;2023-12-20T08:09:39;8.70;93.20
65582;DHT22;52231;40.090;18.348;2023-12-20T08:12:08;8.80;93.10
65582;DHT22;52231;40.090;18.348;2023-12-20T08:14:37;8.90;93.00
65582;DHT22;52231;40.090;18.348;2023-12-20T08:17:05;9.10;93.00
65582;DHT22;52231;40.090;18.348;2023-12-20T08:19:33;9.30;93.00
65582;DHT22;52231;40.090;18.348;2023-12-20T08:22:01;9.60;92.90
65582;DHT22;52231;40.090;18.348;2023-12-20T08:24:30;9.80;92.80
65582;DHT22;52231;40.090;18.348;2023-12-20T08:26:58;10.10;92.80
65582;DHT22;52231;40.090;18.348;2023-12-20T08:29:26;10.20;92.70
65582;DHT22;52231;40.090;18.348;2023-12-20T08:31:55;10.40;92.60
65582;DHT22;52231;40.090;18.348;2023-12-20T08:34:24;10.40;92.40
65582;DHT22;52231;40.090;18.348;2023-12-20T08:39:49;10.60;92.10
65582;DHT22;52231;40.090;18.348;2023-12-20T08:42:21;11.00;92.10
65582;DHT22;52231;40.090;18.348;2023-12-20T08:44:49;10.90;91.70
65582;DHT22;52231;40.090;18.348;2023-12-20T08:47:17;11.10;91.60
65582;DHT22;52231;40.090;18.348;2023-12-20T08:49:46;11.30;91.10
65582;DHT22;52231;40.090;18.348;2023-12-20T08:52:14;11.40;90.80
65582;DHT22;52231;40.090;18.348;2023-12-20T08:54:42;11.80;90.60
65582;DHT22;52231;40.090;18.348;2023-12-20T08:57:11;12.00;90.00
65582;DHT22;52231;40.090;18.348;2023-12-20T08:59:39;12.10;89.00
65582;DHT22;52231;40.090;18.348;2023-12-20T09:02:07;12.30;88.50
65582;DHT22;52231;40.090;18.348;2023-12-20T09:04:35;12.60;88.10
65582;DHT22;52231;40.090;18.348;2023-12-20T09:07:03;13.00;87.30
65582;DHT22;52231;40.090;18.348;2023-12-20T09:09:31;13.20;86.60
65582;DHT22;52231;40.090;18.348;2023-12-20T09:12:00;13.30;85.60
65582;DHT22;52231;40.090;18.348;2023-12-20T09:14:27;13.30;84.70
65582;DHT22;52231;40.090;18.348;2023-12-20T09:16:55;13.30;84.20
65582;DHT22;52231;40.090;18.348;2023-12-20T09:19:24;13.40;84.10
65582;DHT22;52231;40.090;18.348;2023-12-20T09:21:52;13.30;83.40
65582;DHT22;52231;40.090;18.348;2023-12-20T09:24:20;13.50;83.90
65582;DHT22;52231;40.090;18.348;2023-12-20T09:26:48;13.60;84.00
65582;DHT22;52231;40.090;18.348;2023-12-20T09:29:16;13.60;84.00
65582;DHT22;52231;40.090;18.348;2023-12-20T09:31:45;13.90;84.40
65582;DHT22;52231;40.090;18.348;2023-12-20T09:34:15;14.00;83.80
65582;DHT22;52231;40.090;18.348;2023-12-20T09:36:43;13.90;83.00
65582;DHT22;52231;40.090;18.348;2023-12-20T09:39:16;14.00;83.10
65582;DHT22;52231;40.090;18.348;2023-12-20T09:42:02;14.00;82.90
65582;DHT22;52231;40.090;18.348;2023-12-20T09:44:32;14.30;82.80
65582;DHT22;52231;40.090;18.348;2023-12-20T09:47:04;14.40;83.10
65582;DHT22;52231;40.090;18.348;2023-12-20T09:49:36;14.60;83.20
65582;DHT22;52231;40.090;18.348;2023-12-20T09:52:07;14.80;83.00
65582;DHT22;52231;40.090;18.348;2023-12-20T09:54:37;14.80;82.00
65582;DHT22;52231;40.090;18.348;2023-12-20T09:57:05;14.70;82.10
65582;DHT22;52231;40.090;18.348;2023-12-20T09:59:33;14.70;82.70
65582;DHT22;52231;40.090;18.348;2023-12-20T10:02:05;14.80;82.80
65582;DHT22;52231;40.090;18.348;2023-12-20T10:04:36;14.90;83.00
65582;DHT22;52231;40.090;18.348;2023-12-20T10:07:06;15.10;82.90
65582;DHT22;52231;40.090;18.348;2023-12-20T10:09:38;15.30;82.30
65582;DHT22;52231;40.090;18.348;2023-12-20T10:12:07;15.40;82.00
65582;DHT22;52231;40.090;18.348;2023-12-20T10:14:35;15.60;81.70
65582;DHT22;52231;40.090;18.348;2023-12-20T10:17:04;15.60;81.30
65582;DHT22;52231;40.090;18.348;2023-12-20T10:19:33;15.70;81.10
65582;DHT22;52231;40.090;18.348;2023-12-20T10:22:03;15.80;80.20
65582;DHT22;52231;40.090;18.348;2023-12-20T10:24:32;15.90;78.90
65582;DHT22;52231;40.090;18.348;2023-12-20T10:27:08;15.80;76.40
65582;DHT22;52231;40.090;18.348;2023-12-20T10:29:37;15.90;76.20
65582;DHT22;52231;40.090;18.348;2023-12-20T10:32:25;16.00;75.90
65582;DHT22;52231;40.090;18.348;2023-12-20T10:34:55;16.50;76.50
65582;DHT22;52231;40.090;18.348;2023-12-20T10:37:23;16.90;75.00
65582;DHT22;52231;40.090;18.348;2023-12-20T10:39:52;17.30;73.40
65582;DHT22;52231;40.090;18.348;2023-12-20T10:42:26;17.50;71.80
65582;DHT22;52231;40.090;18.348;2023-12-20T10:44:55;17.40;71.00
65582;DHT22;52231;40.090;18.348;2023-12-20T10:47:25;17.30;70.70
65582;DHT22;52231;40.090;18.348;2023-12-20T10:49:54;17.40;70.50
65582;DHT22;52231;40.090;18.348;2023-12-20T10:52:24;17.30;70.20
65582;DHT22;52231;40.090;18.348;2023-12-20T10:54:53;17.10;70.70
65582;DHT22;52231;40.090;18.348;2023-12-20T10:57:22;17.20;70.90
65582;DHT22;52231;40.090;18.348;2023-12-20T10:59:53;17.30;70.40
65582;DHT22;52231;40.090;18.348;2023-12-20T11:02:25;17.20;68.80
65582;DHT22;52231;40.090;18.348;2023-12-20T11:04:57;17.10;68.90
65582;DHT22;52231;40.090;18.348;2023-12-20T11:07:37;17.30;68.40
65582;DHT22;52231;40.090;18.348;2023-12-20T11:10:23;17.30;67.70
65582;DHT22;52231;40.090;18.348;2023-12-20T11:15:31;17.10;68.80
65582;DHT22;52231;40.090;18.348;2023-12-20T11:18:00;17.00;68.60
65582;DHT22;52231;40.090;18.348;2023-12-20T11:20:38;16.90;68.70
65582;DHT22;52231;40.090;18.348;2023-12-20T11:23:14;16.60;69.90
65582;DHT22;52231;40.090;18.348;2023-12-20T11:25:53;16.60;70.60
65582;DHT22;52231;40.090;18.348;2023-12-20T11:28:26;16.50;70.10
65582;DHT22;52231;40.090;18.348;2023-12-20T11:31:02;16.30;69.80
65582;DHT22;52231;40.090;18.348;2023-12-20T11:36:00;16.10;71.80
65582;DHT22;52231;40.090;18.348;2023-12-20T11:38:47;16.20;71.70
65582;DHT22;52231;40.090;18.348;2023-12-20T11:41:17;16.20;71.60
65582;DHT22;52231;40.090;18.348;2023-12-20T11:43:45;16.30;71.30
65582;DHT22;52231;40.090;18.348;2023-12-20T11:46:13;16.50;71.10
65582;DHT22;52231;40.090;18.348;2023-12-20T11:48:41;16.50;70.60
65582;DHT22;52231;40.090;18.348;2023-12-20T11:51:12;16.40;70.20
65582;DHT22;52231;40.090;18.348;2023-12-20T11:53:41;16.50;70.80
65582;DHT22;52231;40.090;18.348;2023-12-20T11:56:10;16.70;70.60
65582;DHT22;52231;40.090;18.348;2023-12-20T11:58:38;16.80;70.10
65582;DHT22;52231;40.090;18.348;2023-12-20T12:01:07;16.80;69.50
65582;DHT22;52231;40.090;18.348;2023-12-20T12:03:35;16.80;69.70
65582;DHT22;52231;40.090;18.348;2023-12-20T12:06:04;16.70;69.40
65582;DHT22;52231;40.090;18.348;2023-12-20T12:08:32;16.60;69.80
65582;DHT22;52231;40.090;18.348;2023-12-20T12:11:01;16.60;69.80
65582;DHT22;52231;40.090;18.348;2023-12-20T12:13:30;16.70;69.80
65582;DHT22;52231;40.090;18.348;2023-12-20T12:15:59;16.80;69.70
65582;DHT22;52231;40.090;18.348;2023-12-20T12:18:27;16.80;68.20
65582;DHT22;52231;40.090;18.348;2023-12-20T12:21:01;16.90;68.00
65582;DHT22;52231;40.090;18.348;2023-12-20T12:23:53;17.00;67.80
65582;DHT22;52231;40.090;18.348;2023-12-20T12:26:21;16.90;67.90
65582;DHT22;52231;40.090;18.348;2023-12-20T12:28:52;16.80;67.90
65582;DHT22;52231;40.090;18.348;2023-12-20T12:31:20;16.80;68.20
65582;DHT22;52231;40.090;18.348;2023-12-20T12:33:49;16.80;67.90
65582;DHT22;52231;40.090;18.348;2023-12-20T12:36:18;17.00;68.10
65582;DHT22;52231;40.090;18.348;2023-12-20T12:38:49;17.20;66.60
65582;DHT22;52231;40.090;18.348;2023-12-20T12:41:17;17.30;66.00
65582;DHT22;52231;40.090;18.348;2023-12-20T12:43:45;17.30;65.50
65582;DHT22;52231;40.090;18.348;2023-12-20T12:46:14;17.30;65.40
65582;DHT22;52231;40.090;18.348;2023-12-20T12:48:42;17.20;65.30
65582;DHT22;52231;40.090;18.348;2023-12-20T12:51:10;17.10;65.50
65582;DHT22;52231;40.090;18.348;2023-12-20T12:53:41;16.90;65.30
65582;DHT22;52231;40.090;18.348;2023-12-20T12:56:09;16.90;66.30
65582;DHT22;52231;40.090;18.348;2023-12-20T12:58:37;16.80;66.40
65582;DHT22;52231;40.090;18.348;2023-12-20T13:01:05;16.80;66.40
65582;DHT22;52231;40.090;18.348;2023-12-20T13:03:34;16.70;66.10
65582;DHT22;52231;40.090;18.348;2023-12-20T13:06:03;16.60;66.10
65582;DHT22;52231;40.090;18.348;2023-12-20T13:08:33;16.50;66.50
65582;DHT22;52231;40.090;18.348;2023-12-20T13:11:01;16.40;65.80
65582;DHT22;52231;40.090;18.348;2023-12-20T13:13:32;16.30;65.80
65582;DHT22;52231;40.090;18.348;2023-12-20T13:16:00;16.30;64.90
65582;DHT22;52231;40.090;18.348;2023-12-20T13:18:28;16.30;64.50
65582;DHT22;52231;40.090;18.348;2023-12-20T13:20:56;16.20;64.10
65582;DHT22;52231;40.090;18.348;2023-12-20T13:23:24;16.20;63.80
65582;DHT22;52231;40.090;18.348;2023-12-20T13:25:52;16.20;63.20
65582;DHT22;52231;40.090;18.348;2023-12-20T13:28:21;16.10;63.10
65582;DHT22;52231;40.090;18.348;2023-12-20T13:30:49;16.00;63.40
65582;DHT22;52231;40.090;18.348;2023-12-20T13:33:17;16.00;63.50
65582;DHT22;52231;40.090;18.348;2023-12-20T13:35:45;16.00;63.60
65582;DHT22;52231;40.090;18.348;2023-12-20T13:38:13;15.90;63.90
65582;DHT22;52231;40.090;18.348;2023-12-20T13:40:42;15.90;64.50
65582;DHT22;52231;40.090;18.348;2023-12-20T13:43:10;15.90;64.90
65582;DHT22;52231;40.090;18.348;2023-12-20T13:45:41;15.80;65.20
65582;DHT22;52231;40.090;18.348;2023-12-20T13:48:12;15.70;65.40
65582;DHT22;52231;40.090;18.348;2023-12-20T13:50:40;15.70;65.50
65582;DHT22;52231;40.090;18.348;2023-12-20T13:53:08;15.70;65.70
65582;DHT22;52231;40.090;18.348;2023-12-20T13:55:36;15.60;66.00
65582;DHT22;52231;40.090;18.348;2023-12-20T13:58:05;15.50;66.40
65582;DHT22;52231;40.090;18.348;2023-12-20T14:00:33;15.50;66.80
65582;DHT22;52231;40.090;18.348;2023-12-20T14:03:01;15.40;66.90
65582;DHT22;52231;40.090;18.348;2023-12-20T14:05:29;15.40;67.10
65582;DHT22;52231;40.090;18.348;2023-12-20T14:07:58;15.30;67.50
65582;DHT22;52231;40.090;18.348;2023-12-20T14:10:27;15.20;67.90
65582;DHT22;52231;40.090;18.348;2023-12-20T14:12:57;15.10;68.20
65582;DHT22;52231;40.090;18.348;2023-12-20T14:15:27;15.00;68.30
65582;DHT22;52231;40.090;18.348;2023-12-20T14:17:56;14.90;68.60
65582;DHT22;52231;40.090;18.348;2023-12-20T14:20:24;14.80;69.00
65582;DHT22;52231;40.090;18.348;2023-12-20T14:22:52;14.80;69.20
65582;DHT22;52231;40.090;18.348;2023-12-20T14:25:20;14.70;69.60
65582;DHT22;52231;40.090;18.348;2023-12-20T14:27:51;14.60;70.00
65582;DHT22;52231;40.090;18.348;2023-12-20T14:30:19;14.50;70.50
65582;DHT22;52231;40.090;18.348;2023-12-20T14:32:48;14.30;71.00
65582;DHT22;52231;40.090;18.348;2023-12-20T14:35:16;14.30;71.30
65582;DHT22;52231;40.090;18.348;2023-12-20T14:37:44;14.20;71.90
65582;DHT22;52231;40.090;18.348;2023-12-20T14:40:12;14.10;72.50
65582;DHT22;52231;40.090;18.348;2023-12-20T14:42:45;14.00;73.10
65582;DHT22;52231;40.090;18.348;2023-12-20T14:45:15;13.90;73.70
65582;DHT22;52231;40.090;18.348;2023-12-20T14:47:47;13.80;74.20
65582;DHT22;52231;40.090;18.348;2023-12-20T14:50:18;13.70;74.70
65582;DHT22;52231;40.090;18.348;2023-12-20T14:52:47;13.60;75.40
65582;DHT22;52231;40.090;18.348;2023-12-20T14:55:15;13.50;75.90
65582;DHT22;52231;40.090;18.348;2023-12-20T14:57:47;13.40;76.20
65582;DHT22;52231;40.090;18.348;2023-12-20T15:00:16;13.30;76.80
65582;DHT22;52231;40.090;18.348;2023-12-20T15:02:49;13.20;77.30
65582;DHT22;52231;40.090;18.348;2023-12-20T15:05:18;13.10;77.80
65582;DHT22;52231;40.090;18.348;2023-12-20T15:07:46;13.00;78.10
65582;DHT22;52231;40.090;18.348;2023-12-20T15:10:26;12.90;78.50
65582;DHT22;52231;40.090;18.348;2023-12-20T15:12:55;12.70;79.00
65582;DHT22;52231;40.090;18.348;2023-12-20T15:15:33;12.60;79.40
65582;DHT22;52231;40.090;18.348;2023-12-20T15:18:04;12.50;79.90
65582;DHT22;52231;40.090;18.348;2023-12-20T15:20:35;12.40;80.30
65582;DHT22;52231;40.090;18.348;2023-12-20T15:23:04;12.30;80.90
65582;DHT22;52231;40.090;18.348;2023-12-20T15:25:36;12.10;81.40
65582;DHT22;52231;40.090;18.348;2023-12-20T15:28:07;12.00;81.90
65582;DHT22;52231;40.090;18.348;2023-12-20T15:30:36;11.90;82.50
65582;DHT22;52231;40.090;18.348;2023-12-20T15:33:05;11.80;83.00
65582;DHT22;52231;40.090;18.348;2023-12-20T15:35:34;11.70;83.40
65582;DHT22;52231;40.090;18.348;2023-12-20T15:38:02;11.60;83.80
65582;DHT22;52231;40.090;18.348;2023-12-20T15:40:32;11.50;84.10
65582;DHT22;52231;40.090;18.348;2023-12-20T15:43:00;11.40;84.40
65582;DHT22;52231;40.090;18.348;2023-12-20T15:45:29;11.30;84.60
65582;DHT22;52231;40.090;18.348;2023-12-20T15:47:57;11.10;84.90